createdAt,value
2018-05-10T00:00:10.350Z,10.23
2018-05-10T00:02:38.522Z,8.63
2018-05-10T00:05:06.689Z,9.83
2018-05-10T00:07:34.874Z,8.67
2018-05-10T00:10:03.049Z,9.10
2018-05-10T00:12:31.212Z,8.30
2018-05-10T00:14:59.393Z,7.80
2018-05-10T00:17:27.560Z,7.73
2018-05-10T00:19:55.745Z,9.33
2018-05-10T00:22:23.917Z,8.23
2018-05-10T00:24:52.085Z,8.33
2018-05-10T00:27:20.284Z,8.63
2018-05-10T00:29:49.223Z,10.40
2018-05-10T00:32:17.386Z,9.40
2018-05-10T00:34:45.568Z,9.20
2018-05-10T00:37:13.831Z,8.83
2018-05-10T00:39:42.004Z,9.67
2018-05-10T00:42:10.190Z,9.00
2018-05-10T00:44:38.361Z,8.63
2018-05-10T00:47:06.564Z,9.37
2018-05-10T00:49:34.737Z,8.30
2018-05-10T00:52:02.898Z,9.20
2018-05-10T00:54:48.894Z,9.47
2018-05-10T00:57:17.096Z,7.83
2018-05-10T00:59:45.281Z,8.77
2018-05-10T01:02:14.243Z,7.73
2018-05-10T01:04:42.419Z,8.47
2018-05-10T01:07:10.586Z,10.03
2018-05-10T01:09:39.522Z,9.60
2018-05-10T01:12:08.457Z,8.57
2018-05-10T01:14:36.616Z,8.63
2018-05-10T01:17:04.796Z,7.77
2018-05-10T01:19:32.957Z,8.90
2018-05-10T01:22:01.146Z,10.80
2018-05-10T01:24:29.333Z,7.40
2018-05-10T01:26:57.517Z,8.27
2018-05-10T01:29:25.799Z,8.40
2018-05-10T01:31:53.981Z,9.13
2018-05-10T01:34:22.157Z,9.00
2018-05-10T01:36:50.320Z,8.27
2018-05-10T01:39:18.526Z,11.30
2018-05-10T01:41:46.733Z,8.87
2018-05-10T01:44:14.941Z,9.60
2018-05-10T01:46:43.106Z,8.40
2018-05-10T01:49:11.292Z,11.70
2018-05-10T01:51:39.464Z,9.70
2018-05-10T01:54:07.638Z,9.03
2018-05-10T01:56:35.813Z,8.37
2018-05-10T01:59:03.984Z,9.70
2018-05-10T02:01:32.165Z,8.90
2018-05-10T02:04:00.341Z,8.47
2018-05-10T02:06:28.510Z,8.50
2018-05-10T02:08:56.688Z,9.07
2018-05-10T02:11:24.859Z,8.23
2018-05-10T02:13:53.035Z,8.13
2018-05-10T02:16:21.209Z,10.63
2018-05-10T02:18:49.374Z,8.67
2018-05-10T02:21:17.542Z,8.73
2018-05-10T02:23:45.740Z,11.70
2018-05-10T02:26:13.947Z,9.33
2018-05-10T02:28:42.149Z,9.07
2018-05-10T02:31:10.326Z,9.87
2018-05-10T02:33:38.508Z,10.80
2018-05-10T02:36:06.676Z,9.37
2018-05-10T02:38:34.844Z,9.27
2018-05-10T02:41:03.787Z,10.40
2018-05-10T02:43:31.957Z,9.80
2018-05-10T02:46:00.134Z,9.03
2018-05-10T02:48:28.346Z,8.30
2018-05-10T02:50:57.328Z,8.97
2018-05-10T02:53:25.494Z,8.70
2018-05-10T02:55:53.711Z,12.40
2018-05-10T02:58:21.931Z,9.67
2018-05-10T03:00:50.129Z,8.90
2018-05-10T03:03:18.326Z,8.90
2018-05-10T03:05:47.302Z,9.43
2018-05-10T03:08:16.256Z,8.83
2018-05-10T03:10:44.475Z,9.37
2018-05-10T03:13:13.557Z,9.17
2018-05-10T03:15:42.614Z,9.00
2018-05-10T03:18:10.858Z,10.97
2018-05-10T03:20:39.800Z,10.27
2018-05-10T03:23:08.006Z,9.90
2018-05-10T03:25:37.065Z,10.70
2018-05-10T03:28:05.238Z,10.30
2018-05-10T03:30:34.038Z,8.40
2018-05-10T03:33:02.313Z,10.37
2018-05-10T03:35:30.480Z,8.93
2018-05-10T03:37:58.644Z,11.07
2018-05-10T03:40:26.838Z,8.10
2018-05-10T03:42:55.028Z,9.50
2018-05-10T03:45:23.202Z,10.33
2018-05-10T03:47:51.388Z,8.93
2018-05-10T03:50:20.342Z,9.47
2018-05-10T03:52:48.549Z,9.47
2018-05-10T03:55:16.817Z,10.00
2018-05-10T03:57:45.234Z,9.73
2018-05-10T04:00:14.540Z,9.73
2018-05-10T04:06:19.694Z,9.87
2018-05-10T04:09:06.678Z,8.17
2018-05-10T04:11:35.195Z,9.20
2018-05-10T04:14:04.950Z,9.60
2018-05-10T04:16:33.157Z,9.70
2018-05-10T04:19:02.148Z,10.20
2018-05-10T04:21:30.366Z,11.23
2018-05-10T04:23:59.163Z,8.50
2018-05-10T04:26:27.694Z,9.90
2018-05-10T04:28:55.872Z,11.33
2018-05-10T04:31:24.045Z,10.13
2018-05-10T04:33:52.222Z,10.23
2018-05-10T04:36:20.420Z,9.20
2018-05-10T04:38:49.413Z,9.80
2018-05-10T04:41:18.345Z,8.57
2018-05-10T04:43:46.530Z,9.23
2018-05-10T04:46:14.733Z,10.50
2018-05-10T04:48:42.904Z,8.20
2018-05-10T04:51:11.072Z,10.27
2018-05-10T04:53:40.188Z,9.63
2018-05-10T04:56:09.201Z,11.40
2018-05-10T04:58:37.408Z,9.33
2018-05-10T05:01:05.672Z,10.37
2018-05-10T05:03:35.532Z,9.57
2018-05-10T05:06:03.951Z,8.50
2018-05-10T05:08:32.211Z,10.57
2018-05-10T05:11:01.257Z,9.63
2018-05-10T05:13:29.464Z,9.20
2018-05-10T05:15:57.661Z,9.53
2018-05-10T05:18:26.579Z,10.73
2018-05-10T05:20:54.816Z,9.40
2018-05-10T05:23:23.812Z,9.30
2018-05-10T05:25:53.082Z,9.13
2018-05-10T05:28:21.409Z,10.03
2018-05-10T05:30:49.625Z,9.60
2018-05-10T05:33:17.869Z,9.37
2018-05-10T05:35:46.075Z,9.63
2018-05-10T05:38:14.461Z,10.57
2018-05-10T05:40:43.349Z,8.87
2018-05-10T05:43:12.027Z,10.30
2018-05-10T05:45:41.102Z,8.97
2018-05-10T05:48:09.313Z,10.70
2018-05-10T05:50:37.532Z,10.03
2018-05-10T05:53:05.744Z,9.80
2018-05-10T05:55:33.957Z,11.73
2018-05-10T05:58:03.218Z,8.83
2018-05-10T06:00:31.845Z,8.77
2018-05-10T06:03:00.116Z,8.03
2018-05-10T06:05:28.366Z,10.90
2018-05-10T06:07:56.729Z,9.17
2018-05-10T06:10:24.981Z,8.80
2018-05-10T06:12:54.140Z,8.27
2018-05-10T06:15:22.415Z,8.87
2018-05-10T06:17:50.602Z,8.87
2018-05-10T06:20:20.443Z,8.17
2018-05-10T06:22:48.664Z,9.50
2018-05-10T06:25:17.352Z,9.67
2018-05-10T06:27:47.309Z,9.10
2018-05-10T06:30:16.302Z,10.87
2018-05-10T06:32:46.606Z,9.27
2018-05-10T06:35:15.612Z,9.47
2018-05-10T06:37:46.201Z,10.30
2018-05-10T06:40:14.422Z,8.07
2018-05-10T06:42:43.522Z,8.63
2018-05-10T06:45:14.381Z,9.00
2018-05-10T06:47:43.382Z,9.90
2018-05-10T06:50:12.496Z,9.07
2018-05-10T06:52:40.700Z,8.90
2018-05-10T06:55:09.831Z,8.40
2018-05-10T06:57:38.793Z,8.47
2018-05-10T07:00:07.814Z,8.00
2018-05-10T07:02:36.793Z,8.10
2018-05-10T07:05:05.784Z,9.10
2018-05-10T07:07:34.109Z,8.37
2018-05-10T07:10:02.443Z,7.47
2018-05-10T07:12:31.384Z,8.40
2018-05-10T07:15:00.639Z,9.30
2018-05-10T07:17:31.866Z,11.33
2018-05-10T07:20:00.822Z,8.93
2018-05-10T07:22:29.045Z,9.03
2018-05-10T07:24:57.228Z,9.20
2018-05-10T07:27:26.269Z,8.50
2018-05-10T07:29:54.518Z,7.90
2018-05-10T07:32:22.820Z,7.83
2018-05-10T07:34:51.055Z,8.23
2018-05-10T07:37:20.884Z,8.53
2018-05-10T07:39:51.889Z,14.00
2018-05-10T07:42:20.185Z,12.63
2018-05-10T07:44:50.436Z,10.53
2018-05-10T07:47:18.798Z,8.13
2018-05-10T07:49:46.953Z,8.50
2018-05-10T07:52:15.222Z,8.90
2018-05-10T07:54:43.394Z,8.00
2018-05-10T07:57:11.567Z,8.57
2018-05-10T07:59:43.864Z,8.30
2018-05-10T08:02:12.902Z,9.10
2018-05-10T08:04:42.870Z,9.33
2018-05-10T08:07:11.865Z,9.77
2018-05-10T08:09:40.810Z,8.97
2018-05-10T08:12:08.990Z,8.00
2018-05-10T08:14:37.158Z,8.83
2018-05-10T08:17:05.426Z,8.80
2018-05-10T08:19:34.425Z,8.43
2018-05-10T08:22:02.756Z,8.20
2018-05-10T08:24:31.741Z,8.27
2018-05-10T08:27:00.739Z,8.10
2018-05-10T08:29:33.377Z,8.73
2018-05-10T08:32:01.611Z,17.20
2018-05-10T08:34:30.584Z,9.23
2018-05-10T08:37:00.046Z,8.80
2018-05-10T08:39:28.214Z,8.23
2018-05-10T08:41:56.411Z,8.47
2018-05-10T08:44:24.683Z,8.53
2018-05-10T08:46:52.941Z,8.13
2018-05-10T08:49:21.199Z,8.53
2018-05-10T08:51:50.088Z,8.10
2018-05-10T08:54:19.449Z,10.77
2018-05-10T08:56:47.788Z,7.87
2018-05-10T08:59:16.077Z,8.20
2018-05-10T09:01:45.233Z,8.43
2018-05-10T09:04:14.230Z,7.70
2018-05-10T09:06:44.049Z,8.47
2018-05-10T09:09:13.230Z,8.27
2018-05-10T09:11:42.503Z,7.30
2018-05-10T09:14:10.820Z,8.13
2018-05-10T09:16:39.046Z,8.93
2018-05-10T09:19:07.342Z,7.73
2018-05-10T09:21:35.551Z,6.97
2018-05-10T09:24:03.873Z,7.53
2018-05-10T09:26:32.053Z,7.30
2018-05-10T09:29:00.223Z,11.60
2018-05-10T09:31:28.458Z,7.63
2018-05-10T09:33:56.703Z,7.50
2018-05-10T09:36:25.721Z,7.63
2018-05-10T09:38:53.948Z,7.87
2018-05-10T09:41:22.169Z,7.07
2018-05-10T09:43:52.125Z,7.27
2018-05-10T09:46:20.353Z,12.97
2018-05-10T09:48:51.520Z,7.20
2018-05-10T09:51:19.741Z,7.40
2018-05-10T09:53:47.924Z,6.80
2018-05-10T09:56:16.106Z,7.13
2018-05-10T09:58:44.337Z,6.60
2018-05-10T10:01:12.547Z,6.60
2018-05-10T10:03:40.762Z,7.47
2018-05-10T10:06:09.045Z,7.40
2018-05-10T10:08:37.337Z,6.73
2018-05-10T10:11:06.453Z,6.73
2018-05-10T10:13:36.270Z,7.63
2018-05-10T10:16:05.041Z,6.50
2018-05-10T10:18:33.270Z,7.10
2018-05-10T10:21:03.442Z,6.77
2018-05-10T10:23:31.926Z,7.33
2018-05-10T10:26:00.192Z,6.23
2018-05-10T10:28:28.594Z,6.70
2018-05-10T10:30:57.267Z,7.83
2018-05-10T10:33:25.443Z,6.70
2018-05-10T10:35:53.624Z,6.73
2018-05-10T10:38:21.885Z,7.10
2018-05-10T10:40:50.062Z,6.83
2018-05-10T10:43:18.268Z,6.53
2018-05-10T10:45:46.445Z,7.00
2018-05-10T10:48:15.669Z,7.63
2018-05-10T10:50:44.649Z,6.53
2018-05-10T10:53:14.704Z,7.33
2018-05-10T10:55:42.925Z,7.90
2018-05-10T10:58:11.379Z,7.10
2018-05-10T11:00:40.125Z,6.77
2018-05-10T11:03:09.144Z,6.80
2018-05-10T11:05:37.441Z,6.20
2018-05-10T11:08:06.478Z,7.40
2018-05-10T11:10:37.070Z,6.83
2018-05-10T11:13:05.306Z,8.40
2018-05-10T11:15:34.363Z,7.53
2018-05-10T11:18:02.886Z,6.33
2018-05-10T11:20:31.920Z,6.53
2018-05-10T11:23:00.124Z,7.10
2018-05-10T11:25:28.346Z,6.37
2018-05-10T11:27:56.523Z,6.87
2018-05-10T11:30:24.813Z,6.40
2018-05-10T11:32:53.798Z,5.80
2018-05-10T11:35:22.021Z,5.67
2018-05-10T11:37:50.958Z,6.50
2018-05-10T11:40:19.128Z,5.70
2018-05-10T11:42:47.364Z,7.53
2018-05-10T11:45:15.703Z,6.90
2018-05-10T11:47:43.982Z,6.70
2018-05-10T11:50:12.378Z,7.47
2018-05-10T11:52:40.889Z,12.87
2018-05-10T11:55:09.140Z,5.80
2018-05-10T11:57:37.413Z,6.87
2018-05-10T12:00:05.780Z,9.90
2018-05-10T12:02:34.043Z,8.10
2018-05-10T12:05:03.173Z,6.27
2018-05-10T12:07:31.542Z,7.17
2018-05-10T12:09:59.719Z,6.10
2018-05-10T12:12:27.913Z,7.00
2018-05-10T12:14:56.116Z,6.53
2018-05-10T12:17:25.354Z,8.80
2018-05-10T12:19:53.694Z,6.30
2018-05-10T12:22:22.827Z,5.90
2018-05-10T12:24:51.157Z,6.83
2018-05-10T12:27:24.044Z,6.50
2018-05-10T12:29:53.369Z,7.13
2018-05-10T12:32:22.657Z,6.80
2018-05-10T12:34:51.864Z,7.50
2018-05-10T12:37:20.192Z,6.80
2018-05-10T12:39:49.525Z,6.07
2018-05-10T12:42:18.454Z,5.40
2018-05-10T12:44:47.669Z,6.23
2018-05-10T12:47:16.959Z,6.80
2018-05-10T12:49:45.623Z,5.90
2018-05-10T12:52:14.296Z,6.00
2018-05-10T12:54:43.273Z,5.93
2018-05-10T12:57:11.585Z,6.77
2018-05-10T12:59:39.893Z,6.07
2018-05-10T13:02:08.061Z,6.50
2018-05-10T13:04:36.246Z,6.83
2018-05-10T13:07:04.421Z,7.23
2018-05-10T13:09:33.898Z,6.33
2018-05-10T13:12:02.168Z,6.53
2018-05-10T13:14:32.199Z,6.47
2018-05-10T13:17:00.482Z,6.90
2018-05-10T13:19:29.381Z,6.23
2018-05-10T13:21:57.553Z,6.53
2018-05-10T13:24:25.730Z,5.67
2018-05-10T13:26:53.949Z,5.23
2018-05-10T13:29:22.905Z,9.40
2018-05-10T13:31:51.074Z,6.37
2018-05-10T13:34:19.253Z,11.23
2018-05-10T13:36:47.514Z,5.13
2018-05-10T13:39:15.676Z,5.33
2018-05-10T13:41:43.850Z,5.70
2018-05-10T13:44:12.048Z,6.60
2018-05-10T13:46:40.258Z,5.63
2018-05-10T13:49:08.441Z,5.50
2018-05-10T13:51:37.564Z,7.80
2018-05-10T13:54:05.760Z,5.33
2018-05-10T13:56:33.934Z,4.80
2018-05-10T13:59:02.146Z,5.07
2018-05-10T14:01:30.642Z,5.67
2018-05-10T14:03:58.831Z,6.00
2018-05-10T14:06:27.759Z,4.90
2018-05-10T14:08:55.949Z,5.13
2018-05-10T14:11:24.169Z,4.90
2018-05-10T14:13:53.114Z,5.40
2018-05-10T14:16:21.285Z,7.37
2018-05-10T14:18:49.461Z,5.33
2018-05-10T14:21:17.648Z,4.53
2018-05-10T14:23:45.824Z,4.90
2018-05-10T14:26:13.993Z,4.77
2018-05-10T14:28:42.243Z,6.07
2018-05-10T14:31:10.386Z,6.40
2018-05-10T14:33:39.418Z,6.13
2018-05-10T14:36:07.614Z,7.23
2018-05-10T14:38:35.781Z,5.70
2018-05-10T14:41:04.044Z,4.40
2018-05-10T14:43:32.221Z,4.30
2018-05-10T14:46:00.402Z,4.50
2018-05-10T14:48:28.670Z,5.47
2018-05-10T14:50:56.839Z,4.90
2018-05-10T14:53:25.014Z,5.60
2018-05-10T14:55:53.191Z,7.13
2018-05-10T14:58:21.364Z,7.33
2018-05-10T15:00:49.645Z,7.53
2018-05-10T15:03:18.281Z,7.00
2018-05-10T15:05:47.227Z,5.83
2018-05-10T15:08:15.401Z,4.97
2018-05-10T15:10:43.585Z,5.77
2018-05-10T15:13:11.770Z,6.20
2018-05-10T15:15:40.029Z,7.93
2018-05-10T15:18:08.139Z,7.93
2018-05-10T15:20:36.333Z,6.20
2018-05-10T15:23:05.261Z,7.33
2018-05-10T15:25:33.540Z,22.07
2018-05-10T15:28:01.719Z,8.83
2018-05-10T15:30:29.897Z,8.07
2018-05-10T15:32:58.223Z,5.90
2018-05-10T15:35:27.191Z,4.80
2018-05-10T15:37:55.369Z,5.67
2018-05-10T15:40:23.556Z,5.70
2018-05-10T15:42:51.734Z,5.30
2018-05-10T15:45:20.689Z,6.00
2018-05-10T15:47:48.886Z,6.90
2018-05-10T15:50:17.062Z,6.83
2018-05-10T15:52:45.249Z,7.13
2018-05-10T15:55:13.425Z,7.30
2018-05-10T15:57:42.382Z,8.50
2018-05-10T16:00:10.549Z,6.10
2018-05-10T16:02:38.733Z,6.40
2018-05-10T16:05:06.906Z,6.00
2018-05-10T16:07:35.073Z,5.90
2018-05-10T16:10:03.261Z,6.07
2018-05-10T16:12:31.444Z,5.13
2018-05-10T16:14:59.639Z,5.83
2018-05-10T16:17:27.812Z,6.63
2018-05-10T16:19:55.986Z,6.03
2018-05-10T16:22:24.952Z,7.03
2018-05-10T16:24:53.128Z,6.93
2018-05-10T16:27:21.298Z,6.10
2018-05-10T16:29:50.233Z,7.13
2018-05-10T16:32:19.169Z,7.07
2018-05-10T16:34:47.347Z,7.10
2018-05-10T16:37:15.524Z,6.80
2018-05-10T16:39:43.743Z,5.57
2018-05-10T16:42:12.681Z,5.63
2018-05-10T16:44:40.858Z,6.23
2018-05-10T16:47:09.028Z,6.13
2018-05-10T16:49:37.212Z,9.37
2018-05-10T16:52:05.432Z,16.43
2018-05-10T16:54:34.379Z,12.23
2018-05-10T16:57:02.558Z,7.30
2018-05-10T16:59:30.723Z,6.93
2018-05-10T17:01:58.898Z,7.33
2018-05-10T17:04:27.084Z,5.70
2018-05-10T17:06:55.297Z,6.33
2018-05-10T17:09:24.256Z,8.90
2018-05-10T17:11:52.425Z,6.40
2018-05-10T17:14:20.599Z,7.17
2018-05-10T17:16:48.792Z,6.97
2018-05-10T17:19:16.987Z,7.67
2018-05-10T17:21:45.945Z,6.60
2018-05-10T17:24:14.140Z,7.12
2018-05-10T17:26:42.311Z,7.63
2018-05-10T17:29:10.478Z,7.43
2018-05-10T17:31:38.650Z,8.33
2018-05-10T17:34:06.836Z,8.57
2018-05-10T17:36:35.029Z,12.43
2018-05-10T17:39:04.077Z,15.80
2018-05-10T17:41:32.276Z,14.70
2018-05-10T17:44:00.444Z,11.20
2018-05-10T17:46:28.638Z,13.07
2018-05-10T17:48:56.825Z,11.37
2018-05-10T17:51:25.794Z,9.27
2018-05-10T17:53:54.006Z,11.30
2018-05-10T17:56:22.954Z,12.40
2018-05-10T17:58:51.129Z,11.57
2018-05-10T18:01:20.081Z,11.03
2018-05-10T18:03:48.273Z,12.40
2018-05-10T18:06:16.450Z,13.97
2018-05-10T18:08:44.635Z,11.73
2018-05-10T18:11:12.813Z,11.43
2018-05-10T18:13:41.799Z,11.77
2018-05-10T18:16:09.970Z,11.73
2018-05-10T18:18:38.175Z,15.67
2018-05-10T18:21:06.357Z,10.67
2018-05-10T18:23:34.620Z,10.10
2018-05-10T18:26:03.493Z,9.53
2018-05-10T18:28:31.690Z,10.37
2018-05-10T18:30:59.869Z,9.30
2018-05-10T18:33:28.057Z,10.63
2018-05-10T18:35:57.015Z,12.07
2018-05-10T18:38:25.188Z,8.20
2018-05-10T18:40:53.474Z,10.00
2018-05-10T18:43:21.632Z,9.53
2018-05-10T18:45:49.827Z,12.10
2018-05-10T18:48:18.030Z,13.47
2018-05-10T18:50:47.000Z,22.87
2018-05-10T18:53:15.188Z,26.00
2018-05-10T18:55:43.366Z,18.53
2018-05-10T18:58:11.557Z,21.07
2018-05-10T19:00:40.577Z,16.13
2018-05-10T19:03:08.763Z,16.50
2018-05-10T19:05:36.938Z,14.80
2018-05-10T19:08:05.118Z,15.17
2018-05-10T19:10:33.297Z,17.70
2018-05-10T19:13:01.482Z,11.73
2018-05-10T19:15:29.873Z,21.87
2018-05-10T19:17:58.641Z,10.63
2018-05-10T19:20:26.822Z,14.20
2018-05-10T19:22:55.042Z,19.83
2018-05-10T19:25:23.987Z,13.50
2018-05-10T19:27:52.337Z,11.33
2018-05-10T19:30:20.540Z,10.93
2018-05-10T19:32:49.500Z,9.47
2018-05-10T19:35:17.707Z,9.43
2018-05-10T19:37:45.878Z,7.30
2018-05-10T19:40:14.049Z,7.07
2018-05-10T19:42:42.235Z,6.93
2018-05-10T19:45:10.404Z,8.20
2018-05-10T19:47:38.588Z,8.20
2018-05-10T19:50:06.768Z,12.50
2018-05-10T19:52:34.965Z,8.50
2018-05-10T19:55:03.142Z,6.93
2018-05-10T19:57:32.081Z,8.00
2018-05-10T20:00:00.365Z,8.13
2018-05-10T20:02:28.589Z,10.93
2018-05-10T20:04:57.527Z,8.57
2018-05-10T20:07:25.711Z,12.53
2018-05-10T20:09:53.885Z,13.93
2018-05-10T20:12:22.146Z,23.03
2018-05-10T20:14:50.277Z,12.00
2018-05-10T20:17:18.447Z,8.00
2018-05-10T20:19:46.652Z,10.80
2018-05-10T20:22:14.827Z,10.73
2018-05-10T20:24:43.007Z,7.80
2018-05-10T20:27:11.208Z,13.07
2018-05-10T20:29:39.404Z,7.67
2018-05-10T20:32:07.699Z,11.60
2018-05-10T20:34:35.814Z,15.83
2018-05-10T20:37:04.018Z,12.70
2018-05-10T20:39:32.189Z,16.63
2018-05-10T20:42:00.362Z,10.33
2018-05-10T20:44:28.532Z,9.23
2018-05-10T20:46:56.715Z,11.70
2018-05-10T20:49:24.909Z,13.63
2018-05-10T20:51:53.088Z,13.83
2018-05-10T20:54:21.265Z,19.80
2018-05-10T20:56:49.450Z,13.90
2018-05-10T20:59:18.430Z,12.93
2018-05-10T21:01:46.608Z,15.03
2018-05-10T21:04:14.827Z,11.60
2018-05-10T21:06:43.734Z,13.17
2018-05-10T21:09:11.898Z,9.67
2018-05-10T21:11:40.067Z,12.00
2018-05-10T21:14:08.280Z,10.27
2018-05-10T21:16:36.449Z,11.23
2018-05-10T21:19:04.627Z,13.80
2018-05-10T21:21:32.814Z,9.40
2018-05-10T21:24:00.993Z,11.80
2018-05-10T21:26:29.195Z,22.63
2018-05-10T21:28:58.146Z,13.27
2018-05-10T21:31:26.649Z,12.23
2018-05-10T21:33:54.879Z,11.00
2018-05-10T21:36:23.305Z,11.87
2018-05-10T21:38:51.493Z,11.13
2018-05-10T21:41:20.608Z,20.20
2018-05-10T21:43:48.929Z,11.63
2018-05-10T21:46:17.133Z,12.47
2018-05-10T21:48:45.322Z,13.20
2018-05-10T21:51:14.265Z,12.60
2018-05-10T21:53:42.454Z,9.77
2018-05-10T21:56:10.627Z,10.57
2018-05-10T21:58:38.807Z,12.10
2018-05-10T22:01:06.986Z,11.93
2018-05-10T22:03:35.167Z,14.47
2018-05-10T22:06:03.364Z,12.77
2018-05-10T22:08:32.305Z,12.40
2018-05-10T22:11:00.479Z,12.17
2018-05-10T22:13:28.654Z,12.13
2018-05-10T22:15:56.824Z,11.00
2018-05-10T22:18:25.008Z,10.13
2018-05-10T22:20:53.953Z,12.77
2018-05-10T22:23:22.895Z,12.93
2018-05-10T22:25:51.081Z,11.17
2018-05-10T22:28:19.261Z,15.70
2018-05-10T22:30:47.429Z,10.83
2018-05-10T22:33:15.597Z,9.87
2018-05-10T22:35:43.778Z,12.00
2018-05-10T22:38:11.969Z,11.50
2018-05-10T22:40:40.142Z,12.10
2018-05-10T22:43:08.333Z,12.80
2018-05-10T22:45:37.443Z,13.13
2018-05-10T22:48:05.636Z,10.63
2018-05-10T22:50:33.836Z,11.27
2018-05-10T22:53:02.022Z,12.00
2018-05-10T22:55:30.202Z,14.30
2018-05-10T22:57:58.364Z,9.27
2018-05-10T23:00:26.540Z,9.70
2018-05-10T23:02:54.709Z,8.23
2018-05-10T23:05:22.915Z,8.83
2018-05-10T23:07:51.859Z,8.70
2018-05-10T23:10:20.061Z,8.60
2018-05-10T23:12:48.567Z,9.90
2018-05-10T23:15:17.511Z,8.50
2018-05-10T23:17:45.682Z,8.80
2018-05-10T23:20:13.858Z,9.43
2018-05-10T23:22:42.030Z,9.10
2018-05-10T23:25:10.199Z,8.07
2018-05-10T23:27:38.393Z,8.93
2018-05-10T23:30:06.577Z,8.93
2018-05-10T23:32:34.749Z,7.90
2018-05-10T23:35:02.913Z,7.87
2018-05-10T23:37:31.085Z,7.40
2018-05-10T23:39:59.270Z,7.13
2018-05-10T23:42:27.438Z,8.43
2018-05-10T23:44:55.611Z,7.47
2018-05-10T23:47:23.786Z,8.77
2018-05-10T23:49:51.964Z,8.23
2018-05-10T23:52:20.137Z,8.30
2018-05-10T23:54:48.651Z,7.80
2018-05-10T23:57:17.245Z,7.87
2018-05-10T23:59:46.193Z,8.00
